sensor_id;sensor_type;location;lat;lon;timestamp;pressure;altitude;pressure_sealevel;temperature;humidity
83563;BME280;73535;52.500;13.482;2024-02-04T00:01:46;101306.88;;;8.90;76.71
83563;BME280;73535;52.500;13.482;2024-02-04T00:04:11;101308.91;;;8.85;75.56
83563;BME280;73535;52.500;13.482;2024-02-04T00:06:37;101318.75;;;8.80;74.85
83563;BME280;73535;52.500;13.482;2024-02-04T00:09:02;101312.00;;;8.76;73.72
83563;BME280;73535;52.500;13.482;2024-02-04T00:11:29;101307.06;;;8.70;74.10
83563;BME280;73535;52.500;13.482;2024-02-04T00:13:54;101328.88;;;8.70;74.25
83563;BME280;73535;52.500;13.482;2024-02-04T00:16:19;101339.25;;;8.72;74.61
83563;BME280;73535;52.500;13.482;2024-02-04T00:18:45;101323.38;;;8.75;74.81
83563;BME280;73535;52.500;13.482;2024-02-04T00:21:10;101322.47;;;8.76;74.65
83563;BME280;73535;52.500;13.482;2024-02-04T00:23:36;101323.53;;;8.72;74.53
83563;BME280;73535;52.500;13.482;2024-02-04T00:26:01;101335.13;;;8.68;74.11
83563;BME280;73535;52.500;13.482;2024-02-04T00:28:26;101331.41;;;8.72;74.41
83563;BME280;73535;52.500;13.482;2024-02-04T00:30:53;101318.41;;;8.70;73.88
83563;BME280;73535;52.500;13.482;2024-02-04T00:33:20;101313.38;;;8.66;73.46
83563;BME280;73535;52.500;13.482;2024-02-04T00:35:46;101346.97;;;8.58;73.31
83563;BME280;73535;52.500;13.482;2024-02-04T00:38:11;101331.09;;;8.61;73.51
83563;BME280;73535;52.500;13.482;2024-02-04T00:40:36;101324.16;;;8.60;73.57
83563;BME280;73535;52.500;13.482;2024-02-04T00:43:02;101318.00;;;8.61;73.33
83563;BME280;73535;52.500;13.482;2024-02-04T00:45:27;101318.75;;;8.63;73.48
83563;BME280;73535;52.500;13.482;2024-02-04T00:47:52;101303.91;;;8.63;73.91
83563;BME280;73535;52.500;13.482;2024-02-04T00:50:17;101302.28;;;8.61;73.83
83563;BME280;73535;52.500;13.482;2024-02-04T00:52:43;101299.97;;;8.55;73.89
83563;BME280;73535;52.500;13.482;2024-02-04T00:55:08;101296.16;;;8.44;73.62
83563;BME280;73535;52.500;13.482;2024-02-04T00:57:33;101306.78;;;8.41;73.70
83563;BME280;73535;52.500;13.482;2024-02-04T00:59:59;101332.63;;;8.30;73.49
83563;BME280;73535;52.500;13.482;2024-02-04T01:02:24;101312.03;;;8.23;73.44
83563;BME280;73535;52.500;13.482;2024-02-04T01:04:49;101309.66;;;8.18;73.03
83563;BME280;73535;52.500;13.482;2024-02-04T01:07:16;101305.09;;;8.22;73.22
83563;BME280;73535;52.500;13.482;2024-02-04T01:09:41;101312.34;;;8.17;73.61
83563;BME280;73535;52.500;13.482;2024-02-04T01:12:07;101304.63;;;8.14;73.73
83563;BME280;73535;52.500;13.482;2024-02-04T01:14:32;101304.78;;;8.11;73.84
83563;BME280;73535;52.500;13.482;2024-02-04T01:16:58;101308.25;;;8.11;73.76
83563;BME280;73535;52.500;13.482;2024-02-04T01:19:23;101289.22;;;8.08;73.58
83563;BME280;73535;52.500;13.482;2024-02-04T01:21:48;101288.53;;;8.04;73.78
83563;BME280;73535;52.500;13.482;2024-02-04T01:24:13;101298.31;;;8.01;73.52
83563;BME280;73535;52.500;13.482;2024-02-04T01:26:39;101297.66;;;7.95;73.74
83563;BME280;73535;52.500;13.482;2024-02-04T01:29:04;101316.84;;;7.96;73.79
83563;BME280;73535;52.500;13.482;2024-02-04T01:31:29;101304.75;;;7.93;74.05
83563;BME280;73535;52.500;13.482;2024-02-04T01:33:54;101314.47;;;7.91;74.13
83563;BME280;73535;52.500;13.482;2024-02-04T01:36:19;101310.84;;;7.94;74.31
83563;BME280;73535;52.500;13.482;2024-02-04T01:38:45;101318.63;;;7.95;74.38
83563;BME280;73535;52.500;13.482;2024-02-04T01:41:10;101314.22;;;7.96;74.49
83563;BME280;73535;52.500;13.482;2024-02-04T01:43:35;101293.38;;;7.94;74.65
83563;BME280;73535;52.500;13.482;2024-02-04T01:46:00;101301.28;;;7.93;74.47
83563;BME280;73535;52.500;13.482;2024-02-04T01:48:26;101302.09;;;7.95;74.86
83563;BME280;73535;52.500;13.482;2024-02-04T01:50:53;101300.38;;;7.94;75.17
83563;BME280;73535;52.500;13.482;2024-02-04T01:53:22;101293.44;;;7.93;75.19
83563;BME280;73535;52.500;13.482;2024-02-04T01:55:48;101294.38;;;7.92;75.55
83563;BME280;73535;52.500;13.482;2024-02-04T01:58:14;101304.34;;;7.84;75.84
83563;BME280;73535;52.500;13.482;2024-02-04T02:00:40;101310.38;;;7.86;76.14
83563;BME280;73535;52.500;13.482;2024-02-04T02:03:06;101297.28;;;7.86;76.56
83563;BME280;73535;52.500;13.482;2024-02-04T02:05:32;101296.59;;;7.82;76.51
83563;BME280;73535;52.500;13.482;2024-02-04T02:07:58;101307.09;;;7.81;76.46
83563;BME280;73535;52.500;13.482;2024-02-04T02:10:23;101323.75;;;7.80;76.64
83563;BME280;73535;52.500;13.482;2024-02-04T02:13:06;101308.19;;;7.77;76.69
83563;BME280;73535;52.500;13.482;2024-02-04T02:15:36;101314.44;;;7.74;77.06
83563;BME280;73535;52.500;13.482;2024-02-04T02:18:10;101311.09;;;7.71;76.99
83563;BME280;73535;52.500;13.482;2024-02-04T02:23:22;101289.41;;;7.69;77.08
83563;BME280;73535;52.500;13.482;2024-02-04T02:25:49;101273.63;;;7.70;76.88
83563;BME280;73535;52.500;13.482;2024-02-04T02:28:14;101273.16;;;7.62;77.13
83563;BME280;73535;52.500;13.482;2024-02-04T02:30:40;101280.91;;;7.64;77.10
83563;BME280;73535;52.500;13.482;2024-02-04T02:33:05;101283.00;;;7.57;77.30
83563;BME280;73535;52.500;13.482;2024-02-04T02:35:32;101290.13;;;7.54;77.30
83563;BME280;73535;52.500;13.482;2024-02-04T02:38:09;101286.56;;;7.55;77.49
83563;BME280;73535;52.500;13.482;2024-02-04T02:40:49;101279.66;;;7.54;77.72
83563;BME280;73535;52.500;13.482;2024-02-04T02:43:16;101273.63;;;7.52;77.82
83563;BME280;73535;52.500;13.482;2024-02-04T02:45:43;101284.19;;;7.50;77.77
83563;BME280;73535;52.500;13.482;2024-02-04T02:48:10;101286.03;;;7.48;77.94
83563;BME280;73535;52.500;13.482;2024-02-04T02:50:36;101287.66;;;7.51;77.85
83563;BME280;73535;52.500;13.482;2024-02-04T02:53:02;101290.13;;;7.54;77.75
83563;BME280;73535;52.500;13.482;2024-02-04T02:55:27;101295.34;;;7.54;77.93
83563;BME280;73535;52.500;13.482;2024-02-04T02:57:52;101290.84;;;7.57;77.79
83563;BME280;73535;52.500;13.482;2024-02-04T03:00:18;101297.88;;;7.55;77.88
83563;BME280;73535;52.500;13.482;2024-02-04T03:02:43;101285.59;;;7.57;77.90
83563;BME280;73535;52.500;13.482;2024-02-04T03:05:08;101281.34;;;7.55;77.79
83563;BME280;73535;52.500;13.482;2024-02-04T03:07:34;101277.66;;;7.59;77.88
83563;BME280;73535;52.500;13.482;2024-02-04T03:09:59;101275.97;;;7.58;77.96
83563;BME280;73535;52.500;13.482;2024-02-04T03:12:25;101286.44;;;7.58;78.11
83563;BME280;73535;52.500;13.482;2024-02-04T03:14:50;101281.06;;;7.61;78.37
83563;BME280;73535;52.500;13.482;2024-02-04T03:17:15;101277.53;;;7.62;78.37
83563;BME280;73535;52.500;13.482;2024-02-04T03:19:45;101282.00;;;7.60;78.67
83563;BME280;73535;52.500;13.482;2024-02-04T03:22:12;101280.38;;;7.57;78.82
83563;BME280;73535;52.500;13.482;2024-02-04T03:24:37;101284.59;;;7.60;78.99
83563;BME280;73535;52.500;13.482;2024-02-04T03:27:02;101276.63;;;7.63;79.01
83563;BME280;73535;52.500;13.482;2024-02-04T03:29:28;101271.25;;;7.66;79.10
83563;BME280;73535;52.500;13.482;2024-02-04T03:31:55;101262.69;;;7.62;79.43
83563;BME280;73535;52.500;13.482;2024-02-04T03:34:20;101263.31;;;7.67;79.21
83563;BME280;73535;52.500;13.482;2024-02-04T03:36:45;101268.47;;;7.69;78.95
83563;BME280;73535;52.500;13.482;2024-02-04T03:39:11;101258.78;;;7.71;78.76
83563;BME280;73535;52.500;13.482;2024-02-04T03:41:36;101245.56;;;7.74;78.83
83563;BME280;73535;52.500;13.482;2024-02-04T03:44:01;101254.31;;;7.73;78.85
83563;BME280;73535;52.500;13.482;2024-02-04T03:46:26;101250.69;;;7.75;78.52
83563;BME280;73535;52.500;13.482;2024-02-04T03:48:52;101247.31;;;7.73;78.67
83563;BME280;73535;52.500;13.482;2024-02-04T03:51:18;101248.06;;;7.75;78.43
83563;BME280;73535;52.500;13.482;2024-02-04T03:53:44;101247.78;;;7.81;78.27
83563;BME280;73535;52.500;13.482;2024-02-04T03:56:09;101245.09;;;7.83;78.17
83563;BME280;73535;52.500;13.482;2024-02-04T03:58:34;101238.25;;;7.80;78.34
83563;BME280;73535;52.500;13.482;2024-02-04T04:00:59;101246.00;;;7.82;78.07
83563;BME280;73535;52.500;13.482;2024-02-04T04:03:25;101235.56;;;7.82;77.85
83563;BME280;73535;52.500;13.482;2024-02-04T04:05:51;101244.41;;;7.79;77.93
83563;BME280;73535;52.500;13.482;2024-02-04T04:08:16;101235.66;;;7.80;77.81
83563;BME280;73535;52.500;13.482;2024-02-04T04:10:43;101234.00;;;7.78;77.94
83563;BME280;73535;52.500;13.482;2024-02-04T04:13:08;101229.63;;;7.78;78.08
83563;BME280;73535;52.500;13.482;2024-02-04T04:15:33;101232.38;;;7.75;77.87
83563;BME280;73535;52.500;13.482;2024-02-04T04:17:58;101225.47;;;7.74;77.77
83563;BME280;73535;52.500;13.482;2024-02-04T04:20:24;101219.38;;;7.74;77.78
83563;BME280;73535;52.500;13.482;2024-02-04T04:22:49;101210.78;;;7.72;77.80
83563;BME280;73535;52.500;13.482;2024-02-04T04:25:14;101211.75;;;7.69;77.80
83563;BME280;73535;52.500;13.482;2024-02-04T04:27:39;101214.31;;;7.71;77.64
83563;BME280;73535;52.500;13.482;2024-02-04T04:30:05;101209.38;;;7.65;77.74
83563;BME280;73535;52.500;13.482;2024-02-04T04:32:30;101198.06;;;7.64;77.90
83563;BME280;73535;52.500;13.482;2024-02-04T04:34:56;101201.66;;;7.62;77.67
83563;BME280;73535;52.500;13.482;2024-02-04T04:37:21;101211.44;;;7.58;78.37
83563;BME280;73535;52.500;13.482;2024-02-04T04:39:47;101210.53;;;7.59;77.54
83563;BME280;73535;52.500;13.482;2024-02-04T04:42:12;101201.97;;;7.56;77.62
83563;BME280;73535;52.500;13.482;2024-02-04T04:44:37;101202.25;;;7.50;77.83
83563;BME280;73535;52.500;13.482;2024-02-04T04:47:03;101213.81;;;7.46;77.77
83563;BME280;73535;52.500;13.482;2024-02-04T04:49:28;101207.72;;;7.45;77.77
83563;BME280;73535;52.500;13.482;2024-02-04T04:51:53;101209.34;;;7.48;77.64
83563;BME280;73535;52.500;13.482;2024-02-04T04:54:18;101192.88;;;7.46;77.60
83563;BME280;73535;52.500;13.482;2024-02-04T04:56:43;101199.94;;;7.44;77.66
83563;BME280;73535;52.500;13.482;2024-02-04T04:59:09;101186.88;;;7.44;77.52
83563;BME280;73535;52.500;13.482;2024-02-04T05:01:34;101192.19;;;7.42;77.22
83563;BME280;73535;52.500;13.482;2024-02-04T05:04:00;101181.00;;;7.38;77.13
83563;BME280;73535;52.500;13.482;2024-02-04T05:06:25;101187.00;;;7.40;77.15
83563;BME280;73535;52.500;13.482;2024-02-04T05:08:50;101171.41;;;7.39;77.14
83563;BME280;73535;52.500;13.482;2024-02-04T05:11:16;101176.69;;;7.37;76.99
83563;BME280;73535;52.500;13.482;2024-02-04T05:13:41;101177.78;;;7.33;77.05
83563;BME280;73535;52.500;13.482;2024-02-04T05:16:06;101175.94;;;7.35;76.94
83563;BME280;73535;52.500;13.482;2024-02-04T05:18:31;101176.94;;;7.33;76.75
83563;BME280;73535;52.500;13.482;2024-02-04T05:20:57;101172.56;;;7.33;76.88
83563;BME280;73535;52.500;13.482;2024-02-04T05:23:22;101172.56;;;7.33;77.07
83563;BME280;73535;52.500;13.482;2024-02-04T05:25:47;101173.41;;;7.34;76.90
83563;BME280;73535;52.500;13.482;2024-02-04T05:28:12;101173.31;;;7.35;77.00
83563;BME280;73535;52.500;13.482;2024-02-04T05:30:37;101170.00;;;7.32;76.98
83563;BME280;73535;52.500;13.482;2024-02-04T05:33:03;101155.25;;;7.31;76.98
83563;BME280;73535;52.500;13.482;2024-02-04T05:35:28;101160.53;;;7.29;76.96
83563;BME280;73535;52.500;13.482;2024-02-04T05:37:53;101150.94;;;7.30;76.93
83563;BME280;73535;52.500;13.482;2024-02-04T05:40:19;101143.00;;;7.31;76.95
83563;BME280;73535;52.500;13.482;2024-02-04T05:42:45;101147.16;;;7.35;76.36
83563;BME280;73535;52.500;13.482;2024-02-04T05:45:10;101142.19;;;7.31;76.36
83563;BME280;73535;52.500;13.482;2024-02-04T05:47:36;101142.94;;;7.33;76.46
83563;BME280;73535;52.500;13.482;2024-02-04T05:50:01;101143.16;;;7.28;76.57
83563;BME280;73535;52.500;13.482;2024-02-04T05:52:27;101151.00;;;7.28;76.50
83563;BME280;73535;52.500;13.482;2024-02-04T05:54:52;101160.63;;;7.28;76.21
83563;BME280;73535;52.500;13.482;2024-02-04T05:57:17;101159.78;;;7.27;76.14
83563;BME280;73535;52.500;13.482;2024-02-04T05:59:42;101162.25;;;7.30;76.20
83563;BME280;73535;52.500;13.482;2024-02-04T06:02:09;101156.94;;;7.32;75.91
83563;BME280;73535;52.500;13.482;2024-02-04T06:04:34;101163.16;;;7.29;75.99
83563;BME280;73535;52.500;13.482;2024-02-04T06:07:01;101156.88;;;7.33;75.80
83563;BME280;73535;52.500;13.482;2024-02-04T06:09:26;101159.47;;;7.33;76.03
83563;BME280;73535;52.500;13.482;2024-02-04T06:11:52;101156.00;;;7.33;75.97
83563;BME280;73535;52.500;13.482;2024-02-04T06:14:17;101169.94;;;7.33;76.15
83563;BME280;73535;52.500;13.482;2024-02-04T06:16:42;101166.38;;;7.34;76.11
83563;BME280;73535;52.500;13.482;2024-02-04T06:19:07;101162.00;;;7.35;75.93
83563;BME280;73535;52.500;13.482;2024-02-04T06:21:34;101163.78;;;7.34;76.32
83563;BME280;73535;52.500;13.482;2024-02-04T06:23:59;101159.34;;;7.36;76.29
83563;BME280;73535;52.500;13.482;2024-02-04T06:26:24;101169.66;;;7.39;76.09
83563;BME280;73535;52.500;13.482;2024-02-04T06:28:49;101162.72;;;7.38;76.15
83563;BME280;73535;52.500;13.482;2024-02-04T06:31:16;101165.31;;;7.38;76.29
83563;BME280;73535;52.500;13.482;2024-02-04T06:33:41;101166.25;;;7.37;76.43
83563;BME280;73535;52.500;13.482;2024-02-04T06:36:09;101167.94;;;7.38;76.23
83563;BME280;73535;52.500;13.482;2024-02-04T06:38:35;101168.84;;;7.37;76.18
83563;BME280;73535;52.500;13.482;2024-02-04T06:41:00;101161.81;;;7.39;76.30
83563;BME280;73535;52.500;13.482;2024-02-04T06:43:25;101156.47;;;7.41;76.30
83563;BME280;73535;52.500;13.482;2024-02-04T06:45:51;101163.47;;;7.40;76.71
83563;BME280;73535;52.500;13.482;2024-02-04T06:48:19;101160.09;;;7.38;76.54
83563;BME280;73535;52.500;13.482;2024-02-04T06:50:44;101174.88;;;7.39;77.25
83563;BME280;73535;52.500;13.482;2024-02-04T06:53:10;101164.41;;;7.39;77.31
83563;BME280;73535;52.500;13.482;2024-02-04T06:55:35;101174.94;;;7.38;77.79
83563;BME280;73535;52.500;13.482;2024-02-04T06:58:01;101160.94;;;7.39;77.64
83563;BME280;73535;52.500;13.482;2024-02-04T07:00:26;101170.56;;;7.38;78.03
83563;BME280;73535;52.500;13.482;2024-02-04T07:02:51;101160.94;;;7.39;78.14
83563;BME280;73535;52.500;13.482;2024-02-04T07:05:16;101168.09;;;7.35;78.49
83563;BME280;73535;52.500;13.482;2024-02-04T07:07:42;101159.25;;;7.38;78.30
83563;BME280;73535;52.500;13.482;2024-02-04T07:10:07;101157.56;;;7.37;78.58
83563;BME280;73535;52.500;13.482;2024-02-04T07:12:32;101167.03;;;7.39;78.13
83563;BME280;73535;52.500;13.482;2024-02-04T07:14:58;101162.94;;;7.34;78.48
83563;BME280;73535;52.500;13.482;2024-02-04T07:17:23;101164.41;;;7.39;78.28
83563;BME280;73535;52.500;13.482;2024-02-04T07:19:49;101154.00;;;7.38;78.39
83563;BME280;73535;52.500;13.482;2024-02-04T07:22:15;101151.34;;;7.39;78.10
83563;BME280;73535;52.500;13.482;2024-02-04T07:24:40;101145.97;;;7.43;77.83
83563;BME280;73535;52.500;13.482;2024-02-04T07:27:06;101138.19;;;7.41;78.12
83563;BME280;73535;52.500;13.482;2024-02-04T07:29:31;101131.94;;;7.44;77.80
83563;BME280;73535;52.500;13.482;2024-02-04T07:31:56;101134.56;;;7.44;77.69
83563;BME280;73535;52.500;13.482;2024-02-04T07:34:21;101145.81;;;7.46;77.54
83563;BME280;73535;52.500;13.482;2024-02-04T07:36:47;101141.34;;;7.48;77.57
83563;BME280;73535;52.500;13.482;2024-02-04T07:39:12;101139.50;;;7.50;77.28
83563;BME280;73535;52.500;13.482;2024-02-04T07:41:37;101136.88;;;7.50;77.32
83563;BME280;73535;52.500;13.482;2024-02-04T07:44:03;101128.13;;;7.51;77.22
83563;BME280;73535;52.500;13.482;2024-02-04T07:46:28;101125.50;;;7.51;77.16
83563;BME280;73535;52.500;13.482;2024-02-04T07:48:53;101115.66;;;7.56;77.02
83563;BME280;73535;52.500;13.482;2024-02-04T07:51:19;101114.91;;;7.54;77.20
83563;BME280;73535;52.500;13.482;2024-02-04T07:53:51;101107.81;;;7.56;76.94
83563;BME280;73535;52.500;13.482;2024-02-04T07:56:16;101109.28;;;7.61;76.73
83563;BME280;73535;52.500;13.482;2024-02-04T07:58:41;101095.28;;;7.62;76.71
83563;BME280;73535;52.500;13.482;2024-02-04T08:01:07;101102.19;;;7.63;76.72
83563;BME280;73535;52.500;13.482;2024-02-04T08:03:32;101103.13;;;7.62;76.78
83563;BME280;73535;52.500;13.482;2024-02-04T08:05:57;101103.13;;;7.62;76.84
83563;BME280;73535;52.500;13.482;2024-02-04T08:08:22;101101.97;;;7.68;76.43
83563;BME280;73535;52.500;13.482;2024-02-04T08:10:48;101112.34;;;7.69;76.58
83563;BME280;73535;52.500;13.482;2024-02-04T08:13:13;101109.97;;;7.65;76.72
83563;BME280;73535;52.500;13.482;2024-02-04T08:15:39;101102.56;;;7.73;76.29
83563;BME280;73535;52.500;13.482;2024-02-04T08:18:04;101099.03;;;7.74;76.50
83563;BME280;73535;52.500;13.482;2024-02-04T08:20:29;101099.91;;;7.74;76.39
83563;BME280;73535;52.500;13.482;2024-02-04T08:22:55;101094.66;;;7.74;76.42
83563;BME280;73535;52.500;13.482;2024-02-04T08:25:20;101105.78;;;7.78;76.25
83563;BME280;73535;52.500;13.482;2024-02-04T08:27:45;101092.50;;;7.82;76.19
83563;BME280;73535;52.500;13.482;2024-02-04T08:30:11;101092.50;;;7.82;75.71
83563;BME280;73535;52.500;13.482;2024-02-04T08:32:37;101099.44;;;7.83;75.05
83563;BME280;73535;52.500;13.482;2024-02-04T08:35:02;101096.56;;;7.88;75.38
83563;BME280;73535;52.500;13.482;2024-02-04T08:37:27;101085.78;;;7.94;74.96
83563;BME280;73535;52.500;13.482;2024-02-04T08:39:53;101078.09;;;7.91;74.88
83563;BME280;73535;52.500;13.482;2024-02-04T08:42:18;101082.47;;;7.90;74.37
83563;BME280;73535;52.500;13.482;2024-02-04T08:44:43;101086.69;;;7.93;73.92
83563;BME280;73535;52.500;13.482;2024-02-04T08:47:09;101082.16;;;7.96;73.90
83563;BME280;73535;52.500;13.482;2024-02-04T08:49:36;101077.00;;;7.95;73.43
83563;BME280;73535;52.500;13.482;2024-02-04T08:52:01;101066.41;;;8.46;85.13
83563;BME280;73535;52.500;13.482;2024-02-04T08:54:27;101073.00;;;9.30;87.12
83563;BME280;73535;52.500;13.482;2024-02-04T08:56:52;101065.53;;;11.60;81.62
83563;BME280;73535;52.500;13.482;2024-02-04T08:59:17;101062.09;;;11.84;78.68
83563;BME280;73535;52.500;13.482;2024-02-04T09:01:42;101070.03;;;11.45;79.17
83563;BME280;73535;52.500;13.482;2024-02-04T09:04:08;101048.25;;;11.68;76.72
83563;BME280;73535;52.500;13.482;2024-02-04T09:06:33;101051.66;;;9.06;70.01
83563;BME280;73535;52.500;13.482;2024-02-04T09:08:58;101059.56;;;8.60;71.18
83563;BME280;73535;52.500;13.482;2024-02-04T09:11:23;101065.13;;;8.38;71.82
83563;BME280;73535;52.500;13.482;2024-02-04T09:13:49;101067.53;;;8.25;72.25
83563;BME280;73535;52.500;13.482;2024-02-04T09:16:15;101056.47;;;8.20;72.39
83563;BME280;73535;52.500;13.482;2024-02-04T09:18:40;101054.06;;;8.16;72.51
83563;BME280;73535;52.500;13.482;2024-02-04T09:21:06;101050.63;;;8.15;72.43
83563;BME280;73535;52.500;13.482;2024-02-04T09:23:31;101056.03;;;8.12;72.79
83563;BME280;73535;52.500;13.482;2024-02-04T09:25:57;101060.41;;;8.12;72.38
83563;BME280;73535;52.500;13.482;2024-02-04T09:28:22;101059.31;;;8.16;72.32
83563;BME280;73535;52.500;13.482;2024-02-04T09:30:47;101057.81;;;8.12;72.01
83563;BME280;73535;52.500;13.482;2024-02-04T09:33:13;101060.78;;;8.21;71.74
83563;BME280;73535;52.500;13.482;2024-02-04T09:35:39;101063.06;;;8.27;71.77
83563;BME280;73535;52.500;13.482;2024-02-04T09:38:04;101056.06;;;8.28;71.44
83563;BME280;73535;52.500;13.482;2024-02-04T09:40:29;101056.75;;;8.31;71.48
83563;BME280;73535;52.500;13.482;2024-02-04T09:42:56;101051.34;;;8.34;71.30
83563;BME280;73535;52.500;13.482;2024-02-04T09:45:22;101048.75;;;8.34;71.33
83563;BME280;73535;52.500;13.482;2024-02-04T09:47:49;101047.66;;;8.38;70.99
83563;BME280;73535;52.500;13.482;2024-02-04T09:50:15;101048.63;;;8.36;70.76
83563;BME280;73535;52.500;13.482;2024-02-04T09:52:43;101051.47;;;8.33;70.47
83563;BME280;73535;52.500;13.482;2024-02-04T09:55:15;101042.25;;;8.41;70.59
83563;BME280;73535;52.500;13.482;2024-02-04T09:57:41;101047.56;;;8.40;70.09
83563;BME280;73535;52.500;13.482;2024-02-04T10:00:07;101040.38;;;8.43;69.96
83563;BME280;73535;52.500;13.482;2024-02-04T10:02:33;101034.41;;;8.41;69.79
83563;BME280;73535;52.500;13.482;2024-02-04T10:04:58;101026.25;;;8.93;70.04
83563;BME280;73535;52.500;13.482;2024-02-04T10:07:24;101032.81;;;9.00;69.66
83563;BME280;73535;52.500;13.482;2024-02-04T10:09:49;101046.00;;;9.14;68.90
83563;BME280;73535;52.500;13.482;2024-02-04T10:12:15;101028.50;;;8.99;68.28
83563;BME280;73535;52.500;13.482;2024-02-04T10:14:40;101023.72;;;8.76;68.13
83563;BME280;73535;52.500;13.482;2024-02-04T10:17:06;101018.84;;;8.70;68.06
83563;BME280;73535;52.500;13.482;2024-02-04T10:19:31;101027.72;;;8.67;68.25
83563;BME280;73535;52.500;13.482;2024-02-04T10:22:01;101024.41;;;8.64;67.71
83563;BME280;73535;52.500;13.482;2024-02-04T10:24:27;101025.00;;;8.69;67.52
83563;BME280;73535;52.500;13.482;2024-02-04T10:26:54;101010.22;;;8.68;67.34
83563;BME280;73535;52.500;13.482;2024-02-04T10:29:19;101004.72;;;8.72;67.16
83563;BME280;73535;52.500;13.482;2024-02-04T10:31:44;101009.19;;;8.70;67.21
83563;BME280;73535;52.500;13.482;2024-02-04T10:34:09;101002.59;;;8.79;67.23
83563;BME280;73535;52.500;13.482;2024-02-04T10:36:35;100999.03;;;8.80;66.97
83563;BME280;73535;52.500;13.482;2024-02-04T10:39:00;101000.56;;;8.84;66.80
83563;BME280;73535;52.500;13.482;2024-02-04T10:41:26;100991.44;;;8.75;66.44
83563;BME280;73535;52.500;13.482;2024-02-04T10:43:54;101006.25;;;8.76;66.59
83563;BME280;73535;52.500;13.482;2024-02-04T10:46:20;100992.13;;;8.79;66.33
83563;BME280;73535;52.500;13.482;2024-02-04T10:48:59;100998.69;;;8.86;66.46
83563;BME280;73535;52.500;13.482;2024-02-04T10:51:26;100993.38;;;8.87;66.29
83563;BME280;73535;52.500;13.482;2024-02-04T10:53:54;101000.44;;;8.85;66.13
83563;BME280;73535;52.500;13.482;2024-02-04T10:56:30;100998.59;;;8.87;65.83
83563;BME280;73535;52.500;13.482;2024-02-04T10:58:57;100984.81;;;8.84;66.24
83563;BME280;73535;52.500;13.482;2024-02-04T11:01:25;100975.19;;;8.84;65.93
83563;BME280;73535;52.500;13.482;2024-02-04T11:03:52;100974.00;;;8.90;66.00
83563;BME280;73535;52.500;13.482;2024-02-04T11:06:18;100977.03;;;8.82;65.73
83563;BME280;73535;52.500;13.482;2024-02-04T11:08:46;100967.56;;;8.80;65.96
83563;BME280;73535;52.500;13.482;2024-02-04T11:11:11;100964.72;;;8.84;66.06
83563;BME280;73535;52.500;13.482;2024-02-04T11:13:37;100965.47;;;8.86;66.00
83563;BME280;73535;52.500;13.482;2024-02-04T11:16:10;100974.16;;;8.87;66.20
83563;BME280;73535;52.500;13.482;2024-02-04T11:18:57;100962.94;;;8.85;65.81
83563;BME280;73535;52.500;13.482;2024-02-04T11:24:41;100970.44;;;8.91;65.59
83563;BME280;73535;52.500;13.482;2024-02-04T11:27:05;100964.59;;;8.86;65.40
83563;BME280;73535;52.500;13.482;2024-02-04T11:29:31;100961.97;;;8.86;65.52
83563;BME280;73535;52.500;13.482;2024-02-04T11:31:56;100955.72;;;8.88;65.52
83563;BME280;73535;52.500;13.482;2024-02-04T11:34:23;100940.00;;;8.88;65.33
83563;BME280;73535;52.500;13.482;2024-02-04T11:36:48;100937.31;;;8.90;65.78
83563;BME280;73535;52.500;13.482;2024-02-04T11:39:20;100943.28;;;8.92;65.46
83563;BME280;73535;52.500;13.482;2024-02-04T11:41:48;100938.03;;;8.92;65.18
83563;BME280;73535;52.500;13.482;2024-02-04T11:44:24;100938.50;;;8.84;65.10
83563;BME280;73535;52.500;13.482;2024-02-04T11:46:50;100915.59;;;8.88;65.20
83563;BME280;73535;52.500;13.482;2024-02-04T11:49:17;100907.34;;;8.94;65.11
83563;BME280;73535;52.500;13.482;2024-02-04T11:51:46;100894.22;;;8.94;65.34
83563;BME280;73535;52.500;13.482;2024-02-04T11:54:14;100894.22;;;8.94;65.17
83563;BME280;73535;52.500;13.482;2024-02-04T11:56:40;100905.84;;;8.90;65.34
83563;BME280;73535;52.500;13.482;2024-02-04T11:59:06;100882.16;;;8.91;64.76
83563;BME280;73535;52.500;13.482;2024-02-04T12:01:32;100904.72;;;8.94;64.56
83563;BME280;73535;52.500;13.482;2024-02-04T12:04:15;100891.25;;;9.00;64.48
83563;BME280;73535;52.500;13.482;2024-02-04T12:06:41;100887.53;;;9.04;64.09
83563;BME280;73535;52.500;13.482;2024-02-04T12:09:07;100904.47;;;8.98;63.99
83563;BME280;73535;52.500;13.482;2024-02-04T12:11:34;100898.19;;;9.01;63.75
83563;BME280;73535;52.500;13.482;2024-02-04T12:14:00;100891.59;;;8.94;63.79
83563;BME280;73535;52.500;13.482;2024-02-04T12:16:26;100903.44;;;9.01;63.79
83563;BME280;73535;52.500;13.482;2024-02-04T12:18:52;100897.16;;;9.03;64.33
83563;BME280;73535;52.500;13.482;2024-02-04T12:21:17;100905.31;;;8.99;63.96
83563;BME280;73535;52.500;13.482;2024-02-04T12:23:43;100898.38;;;8.98;64.23
83563;BME280;73535;52.500;13.482;2024-02-04T12:26:08;100890.63;;;8.96;64.22
83563;BME280;73535;52.500;13.482;2024-02-04T12:28:33;100900.44;;;8.93;63.74
83563;BME280;73535;52.500;13.482;2024-02-04T12:30:58;100907.72;;;8.88;64.17
83563;BME280;73535;52.500;13.482;2024-02-04T12:33:24;100893.66;;;8.89;64.51
83563;BME280;73535;52.500;13.482;2024-02-04T12:35:50;100902.31;;;8.91;64.13
83563;BME280;73535;52.500;13.482;2024-02-04T12:38:16;100907.53;;;8.91;64.36
83563;BME280;73535;52.500;13.482;2024-02-04T12:40:42;100903.22;;;8.90;64.23
83563;BME280;73535;52.500;13.482;2024-02-04T12:43:10;100912.97;;;8.88;64.18
83563;BME280;73535;52.500;13.482;2024-02-04T12:45:36;100888.78;;;8.83;63.80
83563;BME280;73535;52.500;13.482;2024-02-04T12:48:01;100906.78;;;8.89;63.70
83563;BME280;73535;52.500;13.482;2024-02-04T12:50:27;100898.06;;;8.88;63.65